createdAt,value
2023-01-30T00:00:36.360Z,2.52
2023-01-30T00:01:36.463Z,2.55
2023-01-30T00:02:36.590Z,2.56
2023-01-30T00:03:36.686Z,2.58
2023-01-30T00:04:36.950Z,2.59
2023-01-30T00:05:36.922Z,2.60
2023-01-30T00:06:37.070Z,2.62
2023-01-30T00:07:37.172Z,2.64
2023-01-30T00:08:37.309Z,2.65
2023-01-30T00:09:37.509Z,2.66
2023-01-30T00:10:37.638Z,2.67
2023-01-30T00:11:37.735Z,2.68
2023-01-30T00:12:37.899Z,2.69
2023-01-30T00:13:37.993Z,2.69
2023-01-30T00:14:38.157Z,2.69
2023-01-30T00:15:38.195Z,2.70
2023-01-30T00:16:38.403Z,2.71
2023-01-30T00:17:38.459Z,2.71
2023-01-30T00:18:38.592Z,2.70
2023-01-30T00:19:38.709Z,2.70
2023-01-30T00:20:38.824Z,2.70
2023-01-30T00:21:38.906Z,2.69
2023-01-30T00:22:42.376Z,2.68
2023-01-30T00:23:40.151Z,2.66
2023-01-30T00:24:39.621Z,2.66
2023-01-30T00:25:39.583Z,2.65
2023-01-30T00:26:39.586Z,2.64
2023-01-30T00:27:39.596Z,2.63
2023-01-30T00:28:39.769Z,2.62
2023-01-30T00:29:40.016Z,2.60
2023-01-30T00:30:40.027Z,2.59
2023-01-30T00:31:40.154Z,2.58
2023-01-30T00:32:40.205Z,2.57
2023-01-30T00:33:40.348Z,2.57
2023-01-30T00:34:40.572Z,2.56
2023-01-30T00:35:40.600Z,2.55
2023-01-30T00:36:40.700Z,2.54
2023-01-30T00:37:40.854Z,2.53
2023-01-30T00:38:40.909Z,2.53
2023-01-30T00:39:41.031Z,2.54
2023-01-30T00:40:41.118Z,2.53
2023-01-30T00:41:41.269Z,2.52
2023-01-30T00:42:41.375Z,2.51
2023-01-30T00:43:41.477Z,2.51
2023-01-30T00:44:41.710Z,2.50
2023-01-30T00:45:41.789Z,2.49
2023-01-30T00:46:41.875Z,2.49
2023-01-30T00:47:42.014Z,2.49
2023-01-30T00:48:42.079Z,2.49
2023-01-30T00:49:42.199Z,2.50
2023-01-30T00:50:42.290Z,2.50
2023-01-30T00:51:42.437Z,2.50
2023-01-30T00:52:42.585Z,2.49
2023-01-30T00:53:42.687Z,2.48
2023-01-30T00:54:42.805Z,2.48
2023-01-30T00:55:42.919Z,2.46
2023-01-30T00:56:43.019Z,2.46
2023-01-30T00:57:43.117Z,2.46
2023-01-30T00:58:43.242Z,2.46
2023-01-30T00:59:43.383Z,2.46
2023-01-30T01:00:43.481Z,2.46
2023-01-30T01:01:43.633Z,2.45
2023-01-30T01:02:43.764Z,2.44
2023-01-30T01:03:43.839Z,2.44
2023-01-30T01:04:44.030Z,2.45
2023-01-30T01:05:44.083Z,2.45
2023-01-30T01:06:44.189Z,2.45
2023-01-30T01:07:44.316Z,2.46
2023-01-30T01:08:44.401Z,2.47
2023-01-30T01:09:44.539Z,2.47
2023-01-30T01:10:44.626Z,2.47
2023-01-30T01:11:44.736Z,2.46
2023-01-30T01:12:44.849Z,2.46
2023-01-30T01:13:44.931Z,2.46
2023-01-30T01:14:45.076Z,2.47
2023-01-30T01:15:45.153Z,2.48
2023-01-30T01:16:45.253Z,2.48
2023-01-30T01:17:45.397Z,2.48
2023-01-30T01:18:45.537Z,2.48
2023-01-30T01:19:45.721Z,2.49
2023-01-30T01:20:45.815Z,2.48
2023-01-30T01:21:45.891Z,2.48
2023-01-30T01:22:46.047Z,2.49
2023-01-30T01:23:46.136Z,2.50
2023-01-30T01:24:46.327Z,2.51
2023-01-30T01:25:46.420Z,2.51
2023-01-30T01:26:46.594Z,2.51
2023-01-30T01:27:46.678Z,2.51
2023-01-30T01:28:46.756Z,2.51
2023-01-30T01:29:46.965Z,2.52
2023-01-30T01:30:47.117Z,2.52
2023-01-30T01:31:47.157Z,2.51
2023-01-30T01:32:47.227Z,2.49
2023-01-30T01:33:47.370Z,2.49
2023-01-30T01:34:47.558Z,2.51
2023-01-30T01:35:47.663Z,2.51
2023-01-30T01:36:53.821Z,2.51
2023-01-30T01:37:48.873Z,2.52
2023-01-30T01:38:48.024Z,2.54
2023-01-30T01:39:48.213Z,2.56
2023-01-30T01:40:48.281Z,2.59
2023-01-30T01:41:48.382Z,2.60
2023-01-30T01:42:48.483Z,2.61
2023-01-30T01:43:48.574Z,2.63
2023-01-30T01:44:48.978Z,2.66
2023-01-30T01:45:48.908Z,2.69
2023-01-30T01:46:49.013Z,2.71
2023-01-30T01:47:49.088Z,2.74
2023-01-30T01:48:49.236Z,2.76
2023-01-30T01:49:49.368Z,2.78
2023-01-30T01:50:49.477Z,2.80
2023-01-30T01:51:49.588Z,2.82
2023-01-30T01:52:51.901Z,2.84
2023-01-30T01:53:49.811Z,2.87
2023-01-30T01:54:49.916Z,2.89
2023-01-30T01:55:50.060Z,2.92
2023-01-30T01:56:50.156Z,2.94
2023-01-30T01:57:50.245Z,2.96
2023-01-30T01:58:50.353Z,2.98
2023-01-30T01:59:50.449Z,3.00
2023-01-30T02:00:50.654Z,3.02
2023-01-30T02:01:50.704Z,3.04
2023-01-30T02:02:50.802Z,3.06
2023-01-30T02:03:50.944Z,3.07
2023-01-30T02:04:51.059Z,3.10
2023-01-30T02:05:51.180Z,3.12
2023-01-30T02:06:51.366Z,3.15
2023-01-30T02:07:51.395Z,3.17
2023-01-30T02:08:51.547Z,3.19
2023-01-30T02:09:51.643Z,3.21
2023-01-30T02:10:51.760Z,3.22
2023-01-30T02:11:51.851Z,3.23
2023-01-30T02:12:52.002Z,3.24
2023-01-30T02:13:52.100Z,3.23
2023-01-30T02:14:52.202Z,3.23
2023-01-30T02:15:52.325Z,3.22
2023-01-30T02:16:52.416Z,3.21
2023-01-30T02:17:52.601Z,3.20
2023-01-30T02:18:52.689Z,3.18
2023-01-30T02:19:52.880Z,3.17
2023-01-30T02:20:52.943Z,3.16
2023-01-30T02:21:53.029Z,3.15
2023-01-30T02:22:53.187Z,3.14
2023-01-30T02:23:53.290Z,3.13
2023-01-30T02:24:53.396Z,3.10
2023-01-30T02:25:55.668Z,3.08
2023-01-30T02:26:53.643Z,3.05
2023-01-30T02:27:53.720Z,3.03
2023-01-30T02:28:53.857Z,3.04
2023-01-30T02:29:54.025Z,3.04
2023-01-30T02:30:54.179Z,3.04
2023-01-30T02:31:54.248Z,3.04
2023-01-30T02:32:54.334Z,3.03
2023-01-30T02:33:54.474Z,3.02
2023-01-30T02:34:54.615Z,3.01
2023-01-30T02:35:54.767Z,2.99
2023-01-30T02:36:54.876Z,2.97
2023-01-30T02:37:54.959Z,2.95
2023-01-30T02:38:55.101Z,2.93
2023-01-30T02:39:55.212Z,2.91
2023-01-30T02:40:55.325Z,2.89
2023-01-30T02:41:55.453Z,2.88
2023-01-30T02:42:55.543Z,2.86
2023-01-30T02:43:55.669Z,2.85
2023-01-30T02:44:55.893Z,2.84
2023-01-30T02:45:55.943Z,2.84
2023-01-30T02:46:56.076Z,2.84
2023-01-30T02:47:56.155Z,2.84
2023-01-30T02:48:56.299Z,2.84
2023-01-30T02:49:56.439Z,2.85
2023-01-30T02:50:56.593Z,2.86
2023-01-30T02:51:56.708Z,2.87
2023-01-30T02:52:56.798Z,2.89
2023-01-30T02:53:56.939Z,2.91
2023-01-30T02:54:57.037Z,2.94
2023-01-30T02:55:57.189Z,2.96
2023-01-30T02:56:57.332Z,2.97
2023-01-30T02:57:57.408Z,2.98
2023-01-30T02:58:57.560Z,2.99
2023-01-30T02:59:57.651Z,3.00
2023-01-30T03:00:57.774Z,3.01
2023-01-30T03:01:57.928Z,3.01
2023-01-30T03:02:58.017Z,3.02
2023-01-30T03:03:58.118Z,3.01
2023-01-30T03:04:58.255Z,3.01
2023-01-30T03:05:58.436Z,3.01
2023-01-30T03:06:58.710Z,3.01
2023-01-30T03:07:58.632Z,3.02
2023-01-30T03:08:58.739Z,3.02
2023-01-30T03:09:58.836Z,3.02
2023-01-30T03:11:00.035Z,3.02
2023-01-30T03:11:59.084Z,3.01
2023-01-30T03:12:59.273Z,3.00
2023-01-30T03:13:59.328Z,2.99
2023-01-30T03:14:59.473Z,2.98
2023-01-30T03:15:59.586Z,2.96
2023-01-30T03:16:59.704Z,2.95
2023-01-30T03:17:59.819Z,2.94
2023-01-30T03:18:59.935Z,2.92
2023-01-30T03:20:00.075Z,2.90
2023-01-30T03:21:00.218Z,2.89
2023-01-30T03:22:00.313Z,2.89
2023-01-30T03:23:00.413Z,2.88
2023-01-30T03:24:00.514Z,2.87
2023-01-30T03:25:00.645Z,2.86
2023-01-30T03:26:00.735Z,2.84
2023-01-30T03:27:00.957Z,2.84
2023-01-30T03:28:00.988Z,2.84
2023-01-30T03:29:01.145Z,2.84
2023-01-30T03:30:01.276Z,2.84
2023-01-30T03:31:01.425Z,2.84
2023-01-30T03:32:01.627Z,2.84
2023-01-30T03:33:01.578Z,2.84
2023-01-30T03:34:01.685Z,2.85
2023-01-30T03:35:01.793Z,2.85
2023-01-30T03:36:01.885Z,2.85
2023-01-30T03:37:02.007Z,2.86
2023-01-30T03:38:02.103Z,2.86
2023-01-30T03:39:02.212Z,2.87
2023-01-30T03:40:02.312Z,2.89
2023-01-30T03:41:02.393Z,2.91
2023-01-30T03:42:02.572Z,2.93
2023-01-30T03:43:02.665Z,2.95
2023-01-30T03:44:02.812Z,2.97
2023-01-30T03:45:02.969Z,3.00
2023-01-30T03:46:03.055Z,3.02
2023-01-30T03:47:03.151Z,3.04
2023-01-30T03:48:03.275Z,3.07
2023-01-30T03:49:03.395Z,3.09
2023-01-30T03:50:03.546Z,3.11
2023-01-30T03:51:03.653Z,3.13
2023-01-30T03:52:03.759Z,3.16
2023-01-30T03:53:03.842Z,3.18
2023-01-30T03:54:03.965Z,3.20
2023-01-30T03:55:04.048Z,3.20
2023-01-30T03:56:04.278Z,3.21
2023-01-30T03:57:04.353Z,3.23
2023-01-30T03:58:04.453Z,3.24
2023-01-30T03:59:04.617Z,3.27
2023-01-30T04:00:04.740Z,3.31
2023-01-30T04:01:04.839Z,3.34
2023-01-30T04:02:05.163Z,3.37
2023-01-30T04:03:05.049Z,3.40
2023-01-30T04:04:05.157Z,3.42
2023-01-30T04:05:05.280Z,3.44
2023-01-30T04:06:05.375Z,3.46
2023-01-30T04:07:05.502Z,3.48
2023-01-30T04:08:05.608Z,3.49
2023-01-30T04:09:05.695Z,3.51
2023-01-30T04:10:05.851Z,3.52
2023-01-30T04:11:05.941Z,3.52
2023-01-30T04:12:06.175Z,3.52
2023-01-30T04:13:06.206Z,3.53
2023-01-30T04:14:06.316Z,3.54
2023-01-30T04:15:06.408Z,3.54
2023-01-30T04:16:06.555Z,3.55
2023-01-30T04:17:06.742Z,3.57
2023-01-30T04:18:06.825Z,3.58
2023-01-30T04:19:06.923Z,3.59
2023-01-30T04:20:07.093Z,3.59
2023-01-30T04:21:07.161Z,3.60
2023-01-30T04:22:07.313Z,3.60
2023-01-30T04:23:07.412Z,3.61
2023-01-30T04:24:07.558Z,3.63
2023-01-30T04:25:07.807Z,3.64
2023-01-30T04:26:07.794Z,3.65
2023-01-30T04:27:07.962Z,3.64
2023-01-30T04:28:08.040Z,3.64
2023-01-30T04:29:08.189Z,3.64
2023-01-30T04:30:08.278Z,3.64
2023-01-30T04:31:08.478Z,3.65
2023-01-30T04:32:08.621Z,3.65
2023-01-30T04:33:08.656Z,3.65
2023-01-30T04:34:08.804Z,3.64
2023-01-30T04:35:08.860Z,3.64
2023-01-30T04:36:08.995Z,3.63
2023-01-30T04:37:09.222Z,3.62
2023-01-30T04:38:09.221Z,3.62
2023-01-30T04:39:09.297Z,3.62
2023-01-30T04:40:09.471Z,3.62
2023-01-30T04:41:09.580Z,3.63
2023-01-30T04:42:09.672Z,3.64
2023-01-30T04:43:09.773Z,3.63
2023-01-30T04:44:09.876Z,3.64
2023-01-30T04:45:10.109Z,3.64
2023-01-30T04:46:10.168Z,3.64
2023-01-30T04:47:10.262Z,3.64
2023-01-30T04:48:10.347Z,3.64
2023-01-30T04:49:10.484Z,3.64
2023-01-30T04:50:10.627Z,3.63
2023-01-30T04:51:10.810Z,3.63
2023-01-30T04:52:10.908Z,3.62
2023-01-30T04:53:11.011Z,3.63
2023-01-30T04:54:11.109Z,3.62
2023-01-30T04:55:11.280Z,3.60
2023-01-30T04:56:11.366Z,3.60
2023-01-30T04:57:11.461Z,3.59
2023-01-30T04:58:11.605Z,3.58
2023-01-30T04:59:11.767Z,3.57
2023-01-30T05:00:11.859Z,3.56
2023-01-30T05:01:11.965Z,3.56
2023-01-30T05:02:12.095Z,3.55
2023-01-30T05:03:12.162Z,3.55
2023-01-30T05:04:12.310Z,3.55
2023-01-30T05:05:12.438Z,3.55
2023-01-30T05:06:12.553Z,3.55
2023-01-30T05:07:12.639Z,3.56
2023-01-30T05:08:12.794Z,3.57
2023-01-30T05:09:12.887Z,3.57
2023-01-30T05:10:13.032Z,3.57
2023-01-30T05:11:13.136Z,3.57
2023-01-30T05:12:13.226Z,3.57
2023-01-30T05:13:13.384Z,3.57
2023-01-30T05:14:13.476Z,3.57
2023-01-30T05:15:13.617Z,3.59
2023-01-30T05:16:13.784Z,3.60
2023-01-30T05:17:13.931Z,3.61
2023-01-30T05:18:13.958Z,3.61
2023-01-30T05:19:14.112Z,3.62
2023-01-30T05:20:14.276Z,3.62
2023-01-30T05:21:14.421Z,3.62
2023-01-30T05:22:14.466Z,3.62
2023-01-30T05:23:14.555Z,3.63
2023-01-30T05:24:14.666Z,3.63
2023-01-30T05:25:14.856Z,3.64
2023-01-30T05:26:15.060Z,3.65
2023-01-30T05:27:15.089Z,3.66
2023-01-30T05:28:15.255Z,3.67
2023-01-30T05:29:15.334Z,3.67
2023-01-30T05:30:15.496Z,3.68
2023-01-30T05:31:15.799Z,3.69
2023-01-30T05:32:15.729Z,3.69
2023-01-30T05:33:15.809Z,3.70
2023-01-30T05:34:23.231Z,3.70
2023-01-30T05:35:16.519Z,3.70
2023-01-30T05:36:16.243Z,3.70
2023-01-30T05:37:16.308Z,3.71
2023-01-30T05:38:23.451Z,3.71
2023-01-30T05:39:16.626Z,3.72
2023-01-30T05:40:16.697Z,3.72
2023-01-30T05:41:16.964Z,3.73
2023-01-30T05:42:16.895Z,3.73
2023-01-30T05:43:17.039Z,3.73
2023-01-30T05:44:17.202Z,3.73
2023-01-30T05:45:17.664Z,3.74
2023-01-30T05:46:17.512Z,3.74
2023-01-30T05:47:18.453Z,3.74
2023-01-30T05:48:18.482Z,3.75
2023-01-30T05:49:18.021Z,3.75
2023-01-30T05:50:19.658Z,3.76
2023-01-30T05:51:18.023Z,3.77
2023-01-30T05:52:18.071Z,3.79
2023-01-30T05:53:18.394Z,3.80
2023-01-30T05:54:18.351Z,3.81
2023-01-30T05:55:19.033Z,3.82
2023-01-30T05:56:19.099Z,3.82
2023-01-30T05:57:18.700Z,3.82
2023-01-30T05:58:22.463Z,3.82
2023-01-30T05:59:21.433Z,3.82
2023-01-30T06:00:19.042Z,3.81
2023-01-30T06:01:19.223Z,3.80
2023-01-30T06:02:19.267Z,3.81
2023-01-30T06:03:20.603Z,3.81
2023-01-30T06:04:19.553Z,3.81
2023-01-30T06:05:19.893Z,3.82
2023-01-30T06:06:20.687Z,3.82
2023-01-30T06:07:20.022Z,3.83
2023-01-30T06:08:20.006Z,3.84
2023-01-30T06:09:20.220Z,3.84
2023-01-30T06:10:20.360Z,3.85
2023-01-30T06:11:20.359Z,3.85
2023-01-30T06:12:21.481Z,3.86
2023-01-30T06:13:20.561Z,3.86
2023-01-30T06:14:20.661Z,3.86
2023-01-30T06:15:20.814Z,3.87
2023-01-30T06:16:21.031Z,3.87
2023-01-30T06:17:21.018Z,3.88
2023-01-30T06:18:21.119Z,3.88
2023-01-30T06:19:21.254Z,3.89
2023-01-30T06:20:21.377Z,3.90
2023-01-30T06:21:21.415Z,3.91
2023-01-30T06:22:21.569Z,3.92
2023-01-30T06:23:21.683Z,3.93
2023-01-30T06:24:21.772Z,3.93
2023-01-30T06:25:21.965Z,3.93
2023-01-30T06:26:22.116Z,3.94
2023-01-30T06:27:22.191Z,3.96
2023-01-30T06:28:22.315Z,3.97
2023-01-30T06:29:22.382Z,3.98
2023-01-30T06:30:22.533Z,4.00
2023-01-30T06:31:22.670Z,4.02
2023-01-30T06:32:22.704Z,4.03
2023-01-30T06:33:22.804Z,4.04
2023-01-30T06:34:22.963Z,4.06
2023-01-30T06:35:23.088Z,4.07
2023-01-30T06:36:23.173Z,4.09
2023-01-30T06:37:23.266Z,4.11
2023-01-30T06:38:23.376Z,4.12
2023-01-30T06:39:23.486Z,4.14
2023-01-30T06:40:23.583Z,4.17
2023-01-30T06:41:23.681Z,4.20
2023-01-30T06:42:23.794Z,4.23
2023-01-30T06:43:23.895Z,4.25
2023-01-30T06:44:24.015Z,4.26
2023-01-30T06:45:24.110Z,4.27
2023-01-30T06:46:24.234Z,4.28
2023-01-30T06:47:24.310Z,4.29
2023-01-30T06:48:24.407Z,4.30
2023-01-30T06:49:24.548Z,4.30
2023-01-30T06:50:24.742Z,4.31
2023-01-30T06:51:24.857Z,4.32
2023-01-30T06:52:24.966Z,4.33
2023-01-30T06:53:25.083Z,4.34
2023-01-30T06:54:25.157Z,4.36
2023-01-30T06:55:25.323Z,4.37
2023-01-30T06:56:25.407Z,4.38
2023-01-30T06:57:25.533Z,4.39
2023-01-30T06:58:25.616Z,4.41
2023-01-30T06:59:25.753Z,4.43
2023-01-30T07:00:25.826Z,4.45
2023-01-30T07:01:28.630Z,4.46
2023-01-30T07:02:26.086Z,4.46
2023-01-30T07:03:26.194Z,4.46
2023-01-30T07:04:26.430Z,4.47
2023-01-30T07:05:26.440Z,4.47
2023-01-30T07:06:26.526Z,4.48
2023-01-30T07:07:26.679Z,4.50
2023-01-30T07:08:26.803Z,4.51
2023-01-30T07:09:26.954Z,4.53
2023-01-30T07:10:27.268Z,4.54
2023-01-30T07:11:27.113Z,4.55
2023-01-30T07:12:27.202Z,4.56
2023-01-30T07:13:27.316Z,4.57
2023-01-30T07:14:27.550Z,4.58
2023-01-30T07:15:27.564Z,4.59
2023-01-30T07:16:27.679Z,4.59
2023-01-30T07:17:27.842Z,4.60
2023-01-30T07:18:27.860Z,4.60
2023-01-30T07:19:28.035Z,4.61
2023-01-30T07:20:28.123Z,4.62
2023-01-30T07:21:28.252Z,4.61
2023-01-30T07:22:28.332Z,4.61
2023-01-30T07:23:28.457Z,4.61
2023-01-30T07:24:28.574Z,4.62
2023-01-30T07:25:28.685Z,4.63
2023-01-30T07:26:28.795Z,4.64
2023-01-30T07:27:28.877Z,4.64
2023-01-30T07:28:29.020Z,4.65
2023-01-30T07:29:29.207Z,4.65
2023-01-30T07:30:29.468Z,4.66
2023-01-30T07:31:29.464Z,4.67
2023-01-30T07:32:29.518Z,4.68
2023-01-30T07:33:29.647Z,4.70
2023-01-30T07:34:29.770Z,4.72
2023-01-30T07:35:29.874Z,4.74
2023-01-30T07:36:29.975Z,4.75
2023-01-30T07:37:30.124Z,4.76
2023-01-30T07:38:30.191Z,4.77
2023-01-30T07:39:30.404Z,4.78
2023-01-30T07:40:30.393Z,4.80
2023-01-30T07:41:30.519Z,4.81
2023-01-30T07:42:30.617Z,4.82
2023-01-30T07:43:30.704Z,4.84
2023-01-30T07:44:30.932Z,4.85
2023-01-30T07:45:30.954Z,4.86
2023-01-30T07:46:31.040Z,4.87
2023-01-30T07:47:31.135Z,4.88
2023-01-30T07:48:31.252Z,4.89
2023-01-30T07:49:31.377Z,4.89
2023-01-30T07:50:31.499Z,4.89
2023-01-30T07:51:31.588Z,4.90
2023-01-30T07:52:31.688Z,4.90
2023-01-30T07:53:31.774Z,4.91
2023-01-30T07:54:31.891Z,4.92
2023-01-30T07:55:31.982Z,4.93
2023-01-30T07:56:32.133Z,4.94
2023-01-30T07:57:32.321Z,4.94
2023-01-30T07:58:32.368Z,4.95
2023-01-30T07:59:32.587Z,4.95
2023-01-30T08:00:32.640Z,4.96
2023-01-30T08:01:32.805Z,4.97
2023-01-30T08:02:32.881Z,4.98
2023-01-30T08:03:32.977Z,4.98
2023-01-30T08:04:33.193Z,4.99
2023-01-30T08:05:33.232Z,5.00
2023-01-30T08:06:33.342Z,5.01
2023-01-30T08:07:33.439Z,5.01
2023-01-30T08:08:33.587Z,5.02
2023-01-30T08:09:33.773Z,5.03
2023-01-30T08:10:33.807Z,5.03
2023-01-30T08:11:33.918Z,5.04
2023-01-30T08:12:34.019Z,5.05
2023-01-30T08:13:34.268Z,5.05
2023-01-30T08:14:34.233Z,5.05
2023-01-30T08:15:34.385Z,5.05
2023-01-30T08:16:34.556Z,5.05
2023-01-30T08:17:34.710Z,5.05
2023-01-30T08:18:34.733Z,5.05
2023-01-30T08:19:34.793Z,5.05
2023-01-30T08:20:34.942Z,5.04
2023-01-30T08:21:35.042Z,5.04
2023-01-30T08:22:35.192Z,5.04
2023-01-30T08:23:35.295Z,5.04
2023-01-30T08:24:35.403Z,5.05
2023-01-30T08:25:35.517Z,5.05
2023-01-30T08:26:35.632Z,5.05
2023-01-30T08:27:35.703Z,5.05
2023-01-30T08:28:35.817Z,5.04
2023-01-30T08:29:35.917Z,5.03
2023-01-30T08:30:36.066Z,5.03
2023-01-30T08:31:36.170Z,5.03
2023-01-30T08:32:36.380Z,5.03
2023-01-30T08:33:36.437Z,5.04
2023-01-30T08:34:36.532Z,5.04
2023-01-30T08:35:36.669Z,5.05
2023-01-30T08:36:36.765Z,5.05
2023-01-30T08:37:36.902Z,5.06
2023-01-30T08:38:37.025Z,5.07
2023-01-30T08:39:37.395Z,5.08
2023-01-30T08:40:37.217Z,5.08
2023-01-30T08:41:37.309Z,5.08
2023-01-30T08:42:37.412Z,5.09
2023-01-30T08:43:37.615Z,5.09
2023-01-30T08:44:37.663Z,5.08
2023-01-30T08:45:37.768Z,5.07
2023-01-30T08:46:37.861Z,5.07
2023-01-30T08:47:38.000Z,5.06
2023-01-30T08:48:49.158Z,5.07
2023-01-30T08:49:39.192Z,5.09
2023-01-30T08:50:38.323Z,5.11
2023-01-30T08:51:38.435Z,5.12
2023-01-30T08:52:38.532Z,5.14
2023-01-30T08:53:38.653Z,5.15
2023-01-30T08:54:38.763Z,5.19
2023-01-30T08:55:38.869Z,5.21
2023-01-30T08:56:39.038Z,5.23
2023-01-30T08:57:39.161Z,5.23
2023-01-30T08:58:39.244Z,5.22
2023-01-30T08:59:39.415Z,5.21
2023-01-30T09:00:39.430Z,5.21
2023-01-30T09:01:39.568Z,5.21
2023-01-30T09:02:40.012Z,5.22
2023-01-30T09:03:39.801Z,5.24
2023-01-30T09:04:39.908Z,5.25
2023-01-30T09:05:40.004Z,5.26
2023-01-30T09:06:40.109Z,5.28
2023-01-30T09:07:40.208Z,5.30
2023-01-30T09:08:40.469Z,5.31
2023-01-30T09:09:40.437Z,5.32
2023-01-30T09:10:40.868Z,5.32
2023-01-30T09:11:40.687Z,5.31
2023-01-30T09:12:40.828Z,5.30
2023-01-30T09:13:41.027Z,5.31
2023-01-30T09:14:41.065Z,5.32
2023-01-30T09:15:41.188Z,5.34
2023-01-30T09:16:41.315Z,5.37
2023-01-30T09:17:41.483Z,5.39
2023-01-30T09:18:41.518Z,5.42
2023-01-30T09:19:41.618Z,5.45
2023-01-30T09:20:41.724Z,5.47
2023-01-30T09:21:41.817Z,5.49
2023-01-30T09:22:41.951Z,5.51
2023-01-30T09:23:42.085Z,5.54
2023-01-30T09:24:42.185Z,5.56
2023-01-30T09:25:42.322Z,5.58
2023-01-30T09:26:42.435Z,5.60
2023-01-30T09:27:42.554Z,5.63
2023-01-30T09:28:42.636Z,5.65
2023-01-30T09:29:44.430Z,5.67
2023-01-30T09:30:43.008Z,5.69
2023-01-30T09:31:43.119Z,5.71
2023-01-30T09:32:43.212Z,5.72
2023-01-30T09:33:43.301Z,5.74
2023-01-30T09:34:43.430Z,5.76
2023-01-30T09:35:43.530Z,5.79
2023-01-30T09:36:43.910Z,5.81
2023-01-30T09:37:43.878Z,5.83
2023-01-30T09:38:43.888Z,5.85
2023-01-30T09:39:44.005Z,5.86
2023-01-30T09:40:44.111Z,5.89
2023-01-30T09:41:44.213Z,5.91
2023-01-30T09:42:44.410Z,5.93
2023-01-30T09:43:44.438Z,5.96
2023-01-30T09:44:44.537Z,5.98
2023-01-30T09:45:44.668Z,5.99
2023-01-30T09:46:44.756Z,6.01
2023-01-30T09:47:44.903Z,6.04
2023-01-30T09:48:44.987Z,6.06
2023-01-30T09:49:45.098Z,6.07
2023-01-30T09:50:45.225Z,6.09
2023-01-30T09:51:45.306Z,6.10
2023-01-30T09:52:45.525Z,6.11
2023-01-30T09:53:45.542Z,6.13
2023-01-30T09:54:45.658Z,6.15
2023-01-30T09:55:45.772Z,6.18
2023-01-30T09:56:45.867Z,6.21
2023-01-30T09:57:46.072Z,6.24
2023-01-30T09:58:46.096Z,6.27
2023-01-30T09:59:46.205Z,6.29
2023-01-30T10:00:46.304Z,6.30
2023-01-30T10:01:46.437Z,6.30
2023-01-30T10:02:46.552Z,6.29
2023-01-30T10:03:46.709Z,6.28
2023-01-30T10:05:00.546Z,6.27
2023-01-30T10:05:47.885Z,6.27
2023-01-30T10:06:46.992Z,6.26
2023-01-30T10:07:47.233Z,6.25
2023-01-30T10:08:49.847Z,6.24
2023-01-30T10:09:47.338Z,6.25
2023-01-30T10:10:49.566Z,6.26
2023-01-30T10:11:48.576Z,6.26
2023-01-30T10:12:47.740Z,6.26
2023-01-30T10:13:47.793Z,6.25
2023-01-30T10:14:47.898Z,6.25
2023-01-30T10:15:48.034Z,6.24
2023-01-30T10:16:48.135Z,6.23
2023-01-30T10:17:48.336Z,6.23
2023-01-30T10:18:48.422Z,6.23
2023-01-30T10:19:48.635Z,6.25
2023-01-30T10:20:48.647Z,6.27
2023-01-30T10:21:48.968Z,6.30
2023-01-30T10:22:48.893Z,6.35
2023-01-30T10:23:49.007Z,6.41
2023-01-30T10:24:49.125Z,6.49
2023-01-30T10:25:49.236Z,6.58
2023-01-30T10:26:49.382Z,6.65
2023-01-30T10:27:49.573Z,6.72
2023-01-30T10:28:55.610Z,6.76
2023-01-30T10:29:50.664Z,6.75
2023-01-30T10:30:49.889Z,6.70
2023-01-30T10:31:49.965Z,6.67
2023-01-30T10:32:50.082Z,6.66
2023-01-30T10:33:50.118Z,6.67
2023-01-30T10:34:50.216Z,6.67
2023-01-30T10:35:50.323Z,6.66
2023-01-30T10:36:50.504Z,6.66
2023-01-30T10:37:50.621Z,6.66
2023-01-30T10:38:50.717Z,6.64
2023-01-30T10:39:55.397Z,6.61
2023-01-30T10:40:51.901Z,6.58
2023-01-30T10:41:50.991Z,6.57
2023-01-30T10:42:51.155Z,6.57
2023-01-30T10:43:51.232Z,6.59
2023-01-30T10:44:51.338Z,6.58
2023-01-30T10:45:51.492Z,6.57
2023-01-30T10:46:51.623Z,6.58
2023-01-30T10:47:51.721Z,6.61
2023-01-30T10:48:51.875Z,6.63
2023-01-30T10:49:51.900Z,6.63
2023-01-30T10:50:51.997Z,6.61
2023-01-30T10:51:52.109Z,6.59
2023-01-30T10:52:52.279Z,6.57
2023-01-30T10:53:52.319Z,6.56
2023-01-30T10:54:52.441Z,6.57
2023-01-30T10:55:52.550Z,6.57
2023-01-30T10:56:52.660Z,6.57
2023-01-30T10:57:52.816Z,6.55
2023-01-30T10:58:52.858Z,6.53
2023-01-30T10:59:52.989Z,6.51
2023-01-30T11:00:53.136Z,6.50
2023-01-30T11:01:53.246Z,6.49
2023-01-30T11:02:53.440Z,6.49
2023-01-30T11:03:53.497Z,6.49
2023-01-30T11:04:53.600Z,6.49
2023-01-30T11:05:53.738Z,6.51
2023-01-30T11:06:53.911Z,6.51
2023-01-30T11:07:54.010Z,6.49
2023-01-30T11:08:54.050Z,6.50
2023-01-30T11:09:54.162Z,6.51
2023-01-30T11:10:54.255Z,6.52
2023-01-30T11:11:54.380Z,6.54
2023-01-30T11:12:54.544Z,6.55
2023-01-30T11:13:54.638Z,6.54
2023-01-30T11:14:54.695Z,6.53
2023-01-30T11:15:54.823Z,6.54
2023-01-30T11:16:54.932Z,6.54
2023-01-30T11:17:57.131Z,6.55
2023-01-30T11:19:56.228Z,6.62
2023-01-30T11:20:55.322Z,6.67
2023-01-30T11:21:55.425Z,6.70
2023-01-30T11:22:55.572Z,6.71
2023-01-30T11:23:55.640Z,6.71
2023-01-30T11:24:55.787Z,6.71
2023-01-30T11:26:10.148Z,6.70
2023-01-30T11:26:57.064Z,6.68
2023-01-30T11:27:56.099Z,6.67
2023-01-30T11:28:56.201Z,6.69
2023-01-30T11:29:56.302Z,6.70
2023-01-30T11:30:56.436Z,6.72
2023-01-30T11:31:56.643Z,6.73
2023-01-30T11:32:56.659Z,6.73
2023-01-30T11:33:56.715Z,6.72
2023-01-30T11:34:56.817Z,6.71
2023-01-30T11:35:56.942Z,6.71
2023-01-30T11:36:57.040Z,6.72
2023-01-30T11:37:57.286Z,6.73
2023-01-30T11:38:57.279Z,6.71
2023-01-30T11:39:57.469Z,6.67
2023-01-30T11:40:57.485Z,6.64
2023-01-30T11:41:57.606Z,6.62
2023-01-30T11:42:57.906Z,6.61
2023-01-30T11:44:00.464Z,6.61
2023-01-30T11:45:10.881Z,6.59
2023-01-30T11:45:59.126Z,6.58
2023-01-30T11:46:58.204Z,6.58
2023-01-30T11:48:03.767Z,6.60
2023-01-30T11:50:04.722Z,6.56
2023-01-30T11:50:59.763Z,6.55
2023-01-30T11:51:31.644Z,6.59
2023-01-30T11:51:58.791Z,6.55
2023-01-30T11:52:58.980Z,6.53
2023-01-30T11:53:59.015Z,6.52
2023-01-30T11:54:59.103Z,6.52
2023-01-30T11:56:04.270Z,6.52
2023-01-30T11:57:00.332Z,6.51
2023-01-30T11:57:59.571Z,6.48
2023-01-30T11:58:59.548Z,6.45
2023-01-30T12:00:00.047Z,6.42
2023-01-30T12:00:59.830Z,6.40
2023-01-30T12:02:00.165Z,6.40
2023-01-30T12:03:00.139Z,6.39
2023-01-30T12:04:00.172Z,6.39
2023-01-30T12:05:00.318Z,6.39
2023-01-30T12:06:00.441Z,6.40
2023-01-30T12:07:00.485Z,6.39
2023-01-30T12:08:00.609Z,6.38
2023-01-30T12:09:00.791Z,6.36
2023-01-30T12:10:00.834Z,6.36
2023-01-30T12:11:00.936Z,6.37
2023-01-30T12:12:01.057Z,6.37
2023-01-30T12:13:01.284Z,6.37
2023-01-30T12:14:01.282Z,6.35
2023-01-30T12:15:01.387Z,6.33
2023-01-30T12:16:01.528Z,6.32
2023-01-30T12:17:01.724Z,6.33
2023-01-30T12:18:01.822Z,6.33
2023-01-30T12:19:01.844Z,6.34
2023-01-30T12:20:01.987Z,6.33
2023-01-30T12:21:02.180Z,6.31
2023-01-30T12:22:02.175Z,6.29
2023-01-30T12:23:02.376Z,6.27
2023-01-30T12:24:02.431Z,6.25
2023-01-30T12:25:02.751Z,6.25
2023-01-30T12:26:02.705Z,6.24
2023-01-30T12:27:02.824Z,6.20
2023-01-30T12:28:04.398Z,6.12
2023-01-30T12:29:05.727Z,6.03
2023-01-30T12:30:03.490Z,5.94
2023-01-30T12:31:03.422Z,5.85
2023-01-30T12:32:03.374Z,5.78
2023-01-30T12:33:03.657Z,5.72
2023-01-30T12:34:03.706Z,5.68
2023-01-30T12:35:03.750Z,5.68
2023-01-30T12:36:03.894Z,5.68
2023-01-30T12:37:04.008Z,5.70
2023-01-30T12:38:04.236Z,5.74
2023-01-30T12:39:04.171Z,5.79
2023-01-30T12:40:04.325Z,5.84
2023-01-30T12:41:04.408Z,5.88
2023-01-30T12:42:04.571Z,5.91
2023-01-30T12:43:04.975Z,5.94
2023-01-30T12:44:04.778Z,5.97
2023-01-30T12:45:04.861Z,6.00
2023-01-30T12:46:05.269Z,6.03
2023-01-30T12:47:05.092Z,6.06
2023-01-30T12:48:05.626Z,6.08
2023-01-30T12:50:06.712Z,6.11
2023-01-30T12:51:05.764Z,6.13
2023-01-30T12:52:05.617Z,6.15
2023-01-30T12:53:06.529Z,6.16
2023-01-30T12:54:05.828Z,6.17
2023-01-30T12:55:05.945Z,6.19
2023-01-30T12:56:06.071Z,6.21
2023-01-30T12:57:06.180Z,6.22
2023-01-30T12:58:06.526Z,6.23
2023-01-30T12:59:06.443Z,6.24
2023-01-30T13:00:06.551Z,6.26
2023-01-30T13:01:06.743Z,6.27
2023-01-30T13:02:06.826Z,6.28
2023-01-30T13:03:07.225Z,6.30
2023-01-30T13:04:07.006Z,6.32
2023-01-30T13:05:07.110Z,6.34
2023-01-30T13:06:07.250Z,6.36
2023-01-30T13:07:07.419Z,6.38
2023-01-30T13:08:07.544Z,6.39
2023-01-30T13:09:07.576Z,6.39
2023-01-30T13:10:07.678Z,6.40
2023-01-30T13:11:07.814Z,6.41
2023-01-30T13:12:08.189Z,6.41
2023-01-30T13:13:08.026Z,6.42
2023-01-30T13:14:08.471Z,6.42
2023-01-30T13:15:08.262Z,6.44
2023-01-30T13:16:08.593Z,6.45
2023-01-30T13:17:08.485Z,6.44
2023-01-30T13:18:10.238Z,6.44
2023-01-30T13:19:08.765Z,6.45
2023-01-30T13:20:08.824Z,6.47
2023-01-30T13:21:08.941Z,6.48
2023-01-30T13:22:09.032Z,6.46